METAR AND TAF INFORMATION
METAR FOR USSS
ADDS - METARS form results

(0157 UTC 18 November 2019)
Data provider http://aviationweather.gov/metar/data/
 
METAR text: USSS 180130Z 34006MPS 310V010 9000 -SN BKN029 M04/M06 Q1025 R26L/290045 R26R/950335 NOSIG RMK QFE748/0997
Conditions at: USSS (EKATERINBURG , RU) observed 0130 UTC 18 November 2019
Temperature: -4.0°C (25°F)
Dewpoint: -6.0°C (21°F) [RH = 86%]
Pressure (altimeter): 30.27 inches Hg (1025.0 mb)
Winds: from the NNW (340 degrees) at 14 MPH (12 knots; 6.2 m/s)
Visibility: 6 miles ( 9 km)
Ceiling: 2900 feet AGL
Clouds: broken clouds at 2900 feet AGL
Weather: -SN  (light snow)

METAR text: USSS 180100Z 32006MPS 9000 -SN OVC016 M03/M06 Q1024 R26L/290045 R26R/950335 NOSIG RMK QFE747/0997
Conditions at: USSS (EKATERINBURG , RU) observed 0100 UTC 18 November 2019
Temperature: -3.0°C (27°F)
Dewpoint: -6.0°C (21°F) [RH = 80%]
Pressure (altimeter): 30.24 inches Hg (1024.0 mb)
Winds: from the NW (320 degrees) at 14 MPH (12 knots; 6.2 m/s)
Visibility: 6 miles ( 9 km)
Ceiling: 1600 feet AGL
Clouds: overcast cloud deck at 1600 feet AGL
Weather: -SN  (light snow)

Forecast for: USSS (EKATERINBURG , RU)
Text: TAF USSS 172253Z 1800/1824 34005G14MPS 9999 -SN BKN016
Forecast period: 0000 to 0700 UTC 18 November 2019
Forecast type: FROM: standard forecast or significant change
Winds: from the NNW (340 degrees) at 12 MPH (10 knots; 5.1 m/s)
gusting to 31 MPH (27 knots; 13.9 m/s)
Visibility: 6 or more miles 10+ km)
Ceiling: 1600 feet AGL
Clouds: broken clouds at 1600 feet AGL
Weather: -SN  (light snow)
Text: FM180700 36003G12MPS 6000 -SHSN BKN016 SCT020CB
Forecast period: 0700 UTC 18 November 2019 to 0000 UTC 19 November 2019
Forecast type: FROM: standard forecast or significant change
Winds: from the N (360 degrees) at 7 MPH (6 knots; 3.1 m/s)
gusting to 26 MPH (23 knots; 11.8 m/s)
Visibility: 4 miles (6 km)
Ceiling: 1600 feet AGL
Clouds: broken clouds at 1600 feet AGL
scattered clouds at 2000 feet AGL
Weather: -SHSN  (light snow showers)

 AIRPORT MAP

 RUNWAY INFORMATION

 AIRPORT FREQUENCIES
Type APP Name APP Frequency 125.9 MHZ
Type ATIS Name ATIS Frequency 127.8 MHZ
Type GCA Name GCA Frequency 120 MHZ
Type GND Name GND Frequency 119 MHZ
Type RDR Name ASR Frequency 118.7 MHZ
Type TWR Name TWR Frequency 120 MHZ

 AIRPORT NEAR NAVIGATION AIDS
Type NDB Name Koltsovo Frequency 786 KHZ
Type NDB Name Koltsovo Frequency 786 KHZ
Type NDB Name Koltsovo Frequency 370 KHZ
Type NDB Name Koltsovo Frequency 370 KHZ



2018 Air Astana Virtual Airline